• Join FlightAware (Why Join?)
  • Login
  • US Flag 
08:48PM EDT


 

Airport Tracker/Info


-or-


 

Live Flight TrackerFlight Track Log ✈ N724AE ✈ 13-Apr-2013 ✈ KTLH - KDFW

Flight Track Log - Related Links

Times and Time Zones

All times are in EDT time to prevent confusion due to time zone crossing. See the N724AE flight status page for this flight to view local times or setup timezone preferences in your user account.

Time Position Orientation Groundspeed Altitude Reporting Facility
EDT Latitude Longitude Course Direction KTS MPH feet Rate Location/Type
06:38AM 30.3850 -84.4000 286° West 184 212 1,500  Level Jacksonville Center
06:39AM 30.3906 -84.4650 276° West 205 236 4,200 2,400 Climbing Jacksonville Center
06:40AM 30.4711 -84.6552 283° West  Level FlightAware Approximate
06:40AM 30.4083 -84.5353 286° West 210 242 6,400  Level Jacksonville Center
06:41AM 30.4923 -84.7616 283° West  Level FlightAware Approximate
06:41AM 30.4303 -84.6150 288° West 232 267 8,900  Level Jacksonville Center
06:42AM 30.5168 -84.8671 286° West  Level FlightAware Approximate
06:42AM 30.4519 -84.7022 286° West 253 291 11,100  Level Jacksonville Center
06:43AM 30.5430 -84.9721 286° West  Level FlightAware Approximate
06:43AM 30.4758 -84.7919 287° West 279 321 12,500  Level Jacksonville Center
06:44AM 30.5014 -84.8889 287° West 294 338 14,300 1,800 Climbing Jacksonville Center
06:45AM 30.5269 -84.9883 287° West 317 365 16,200 1,680 Climbing Jacksonville Center
06:46AM 30.5525 -85.0878 287° West 322 371 17,700 1,380 Climbing Jacksonville Center
06:47AM 30.5800 -85.1872 288° West 322 371 19,000 1,380 Climbing Jacksonville Center
06:48AM 30.6050 -85.2917 286° West 327 376 20,500 1,500 Climbing Jacksonville Center
06:49AM 30.6322 -85.3961 287° West 333 383 22,100 1,560 Climbing Jacksonville Center
06:50AM 30.6594 -85.5056 286° West 345 397 23,700 1,620 Climbing Jacksonville Center
06:51AM 30.6844 -85.6053 286° West 350 403 25,400 1,620 Climbing Jacksonville Center
06:52AM 30.7114 -85.7122 286° West 350 403 27,000 1,620 Climbing Jacksonville Center
06:53AM 30.7381 -85.8194 286° West 350 403 28,700 1,620 Climbing Jacksonville Center
06:54AM 30.7628 -85.9242 285° West 344 396 30,300 1,500 Climbing Jacksonville Center
06:55AM 30.7894 -86.0314 286° West 344 396 31,700 1,440 Climbing Jacksonville Center
06:56AM 30.8139 -86.1361 285° West 344 396 33,200 1,440 Climbing Jacksonville Center
06:57AM 30.8153 -86.2450 271° West 339 390 34,600 1,200 Climbing Jacksonville Center
06:58AM 30.8186 -86.3542 272° West 334 384 35,600 660 Climbing Jacksonville Center
06:59AM 30.8217 -86.4678 272° West 342 394 36,000 180 Climbing Jacksonville Center
07:00AM 30.8247 -86.5864 272° West 357 411 36,000  Level Jacksonville Center
07:01AM 30.8331 -86.7247 274° West 382 440 36,000  Level Jacksonville Center
07:02AM 30.8522 -86.8511 280° West 392 451 36,000  Level Jacksonville Center
07:03AM 30.8711 -86.9778 280° West 392 451 36,000  Level Jacksonville Center
07:04AM 30.8900 -87.1044 280° West 392 451 36,000  Level Jacksonville Center
07:05AM 30.9183 -87.3086 279° West 401 461 36,000  Level Houston Center
07:06AM 30.9364 -87.4339 280° West 394 453 36,000  Level Houston Center
07:07AM 30.9542 -87.5583 279° West 390 449 36,000  Level Houston Center
07:08AM 30.9706 -87.6828 279° West 390 449 36,000  Level Houston Center
07:10AM 30.9889 -87.8119 279° West 394 453 36,000  Level Houston Center
07:11AM 31.0067 -87.9369 279° West 393 452 36,000  Level Houston Center
07:12AM 31.0236 -88.0628 279° West 394 453 36,000  Level Houston Center
07:13AM 31.0386 -88.1878 278° West 392 451 36,000  Level Houston Center
07:14AM 31.0556 -88.3114 279° West 389 448 36,000  Level Houston Center
07:15AM 31.0733 -88.4361 279° West 391 450 36,000  Level Houston Center
07:16AM 31.0894 -88.5592 279° West 385 443 36,000  Level Houston Center
07:17AM 31.1067 -88.6922 279° West 385 443 36,000  Level Houston Center
07:18AM 31.1231 -88.8161 279° West 388 447 36,000  Level Houston Center
07:19AM 31.1414 -88.9519 279° West 383 441 36,000  Level Houston Center
07:20AM 31.1586 -89.0753 279° West 386 444 36,000  Level Houston Center
07:21AM 31.1722 -89.1983 277° West 384 442 36,000  Level Houston Center
07:22AM 31.1903 -89.3250 279° West 393 452 36,000  Level Houston Center
07:23AM 31.2056 -89.4475 278° West 388 447 36,000  Level Houston Center
07:24AM 31.2206 -89.5717 278° West 387 445 36,000  Level Houston Center
07:25AM 31.2361 -89.6944 278° West 386 444 36,000  Level Houston Center
07:26AM 31.2536 -89.8181 279° West 389 448 36,000  Level Houston Center
07:27AM 31.2708 -89.9428 279° West 391 450 36,000  Level Houston Center
07:28AM 31.2872 -90.0672 279° West 392 451 36,000  Level Houston Center
07:29AM 31.3061 -90.1911 280° West 390 449 36,000  Level Houston Center
07:30AM 31.3222 -90.3144 279° West 388 447 36,000  Level Houston Center
07:31AM 31.3386 -90.4372 279° West 385 443 36,000  Level Houston Center
07:32AM 31.3556 -90.5611 279° West 387 445 36,000  Level Houston Center
07:33AM 31.3717 -90.6853 279° West 390 449 36,000  Level Houston Center
07:34AM 31.3922 -90.8322 279° West 385 443 36,000  Level Houston Center
07:35AM 31.4083 -90.9564 279° West 389 448 36,000  Level Houston Center
07:36AM 31.4256 -91.0806 279° West 389 448 36,000  Level Houston Center
07:37AM 31.4414 -91.2100 278° West 388 447 36,000  Level Houston Center
07:38AM 31.4569 -91.3356 278° West 389 448 36,000  Level Houston Center
07:39AM 31.4728 -91.4611 278° West 392 451 36,000  Level Houston Center
07:40AM 31.4900 -91.5856 279° West 391 450 36,000  Level Houston Center
07:41AM 31.5044 -91.7108 278° West 390 449 36,000  Level Houston Center
07:42AM 31.5203 -91.8350 279° West 389 448 36,000  Level Houston Center
07:43AM 31.5353 -91.9597 278° West 388 447 36,000  Level Houston Center
07:44AM 31.5483 -92.0736 278° West 386 444 36,000  Level Houston Center
07:45AM 31.5633 -92.1978 278° West 384 442 36,000  Level Houston Center
07:46AM 31.5781 -92.3219 278° West 386 444 36,000  Level Houston Center
07:47AM 31.5942 -92.4458 279° West 386 444 36,000  Level Houston Center
07:48AM 31.6106 -92.5944 277° West 384 442 36,000  Level Houston Center
07:49AM 31.6253 -92.7172 278° West 383 441 36,000  Level Houston Center
07:50AM 31.6392 -92.8411 278° West 383 441 36,000  Level Houston Center
07:51AM 31.6536 -92.9639 278° West 381 438 36,000  Level Houston Center
07:52AM 31.6681 -93.0892 278° West 387 445 36,000  Level Houston Center
07:53AM 31.6828 -93.2131 278° West 386 444 36,000  Level Houston Center
07:54AM 31.6969 -93.3417 277° West 387 445 36,000  Level Houston Center
07:55AM 31.7106 -93.4664 277° West 387 445 36,000  Level Houston Center
07:56AM 31.7256 -93.5994 278° West 387 445 36,000  Level Houston Center
07:57AM 31.7397 -93.7253 278° West 389 448 36,000  Level Houston Center
07:58AM 31.7544 -93.8494 278° West 388 447 36,000  Level Houston Center
07:59AM 31.7797 -93.9731 284° West 391 450 36,000  Level Houston Center
08:00AM 31.8025 -94.0875 283° West 389 448 36,000  Level Houston Center
08:01AM 31.8267 -94.2122 283° West 390 449 36,000  Level Houston Center
08:02AM 31.8544 -94.3439 284° West 389 448 36,000  Level Fort Worth Center
08:03AM 31.8764 -94.4681 282° West 389 448 36,000  Level Fort Worth Center
08:04AM 31.9022 -94.5944 284° West 389 448 36,000  Level Fort Worth Center
08:05AM 31.9361 -94.7206 288° West 395 455 36,000  Level Fort Worth Center
08:06AM 31.9681 -94.8422 287° West 395 455 36,000  Level Fort Worth Center
08:07AM 31.9997 -94.9636 287° West 395 455 36,000  Level Fort Worth Center
08:08AM 32.0333 -95.0853 288° West 395 455 36,000  Level Fort Worth Center
08:09AM 32.0647 -95.2072 287° West 395 455 36,000  Level Fort Worth Center
08:10AM 32.0958 -95.3289 287° West 395 455 36,000  Level Fort Worth Center
08:11AM 32.1272 -95.4533 287° West 395 455 36,000 -300 Level Fort Worth Center
08:12AM 32.1581 -95.5731 287° West 395 455 35,400 -1,800 Descending Fort Worth Center
08:13AM 32.1911 -95.6900 288° West 383 441 32,500 -2,940 Descending Fort Worth Center
08:14AM 32.2242 -95.8244 286° West 383 441 29,600 -3,000 Descending Fort Worth Center
08:15AM 32.2550 -95.9492 286° West 393 452 26,600 -3,060 Descending Fort Worth Center
08:16AM 32.2878 -96.0789 287° West 403 464 23,500 -2,940 Descending Fort Worth Center
08:17AM 32.3161 -96.1917 287° West 403 464 20,800 -3,000 Descending Fort Worth Center
08:18AM 32.3528 -96.3289 288° West 395 455 17,600 -2,880 Descending Fort Worth Center
08:19AM 32.3764 -96.4269 286° West 373 429 15,100 -2,400 Descending Fort Worth Center
08:20AM 32.4461 -96.5297 309° West 356 410 12,900 -1,800 Descending Fort Worth Center
08:21AM 32.5136 -96.6078 316° Northwest 367 422 11,500 -960 Descending Fort Worth Center
08:22AM 32.5933 -96.7033 315° West 373 429 11,000 -300 Descending Fort Worth Center
08:23AM 32.6586 -96.7817 315° West 379 436 11,000  Level Fort Worth Center
08:24AM 32.7300 -96.8628 316° Northwest 338 389 11,000 -480 Level Fort Worth Center
08:25AM 32.7781 -96.9019 326° Northwest 307 353 10,100 -1,200 Descending Fort Worth Center
08:26AM 32.8511 -96.9039 359° North 249 287 8,600 -1,680 Descending Fort Worth Center
08:26AM 32.8833 -96.9000 North 260 299 7,900 -1,620 Descending Dallas / Fort Worth TRACON
08:27AM 32.9500 -96.9000 360° North 252 290 6,500 -1,440 Descending Dallas / Fort Worth TRACON
08:29AM 33.0661 -96.9078 357° North 249 287 4,200 -1,260 Descending Fort Worth Center
08:30AM 33.1144 -96.9522 322° Northwest 233 268 3,200 -900 Descending Fort Worth Center
08:30AM 33.1167 -96.9833 275° West 242 278 3,000 -600 Descending Dallas / Fort Worth TRACON